sensor_id;sensor_type;location;lat;lon;timestamp;P1;P2;P0
72509;PMS5003;60532;56.114;40.350;2022-10-16T00:00:38;23.50;22.00;15.50
72509;PMS5003;60532;56.114;40.350;2022-10-16T00:02:39;37.20;29.60;16.20
72509;PMS5003;60532;56.114;40.350;2022-10-16T00:04:39;31.75;26.75;13.25
72509;PMS5003;60532;56.114;40.350;2022-10-16T00:06:40;30.50;28.50;17.00
72509;PMS5003;60532;56.114;40.350;2022-10-16T00:08:40;30.25;28.25;15.00
72509;PMS5003;60532;56.114;40.350;2022-10-16T00:10:41;29.00;26.75;14.50
72509;PMS5003;60532;56.114;40.350;2022-10-16T00:12:42;36.25;27.75;14.75
72509;PMS5003;60532;56.114;40.350;2022-10-16T00:14:42;35.00;30.00;16.00
72509;PMS5003;60532;56.114;40.350;2022-10-16T00:16:44;31.60;29.20;14.80
72509;PMS5003;60532;56.114;40.350;2022-10-16T00:18:45;34.00;31.00;17.60
72509;PMS5003;60532;56.114;40.350;2022-10-16T00:20:46;27.60;22.60;13.40
72509;PMS5003;60532;56.114;40.350;2022-10-16T00:22:47;38.75;28.50;14.75
72509;PMS5003;60532;56.114;40.350;2022-10-16T00:24:47;28.00;25.75;14.50
72509;PMS5003;60532;56.114;40.350;2022-10-16T00:26:48;22.00;21.50;8.50
72509;PMS5003;60532;56.114;40.350;2022-10-16T00:28:50;33.80;29.00;15.20
72509;PMS5003;60532;56.114;40.350;2022-10-16T00:30:50;39.60;31.40;17.60
72509;PMS5003;60532;56.114;40.350;2022-10-16T00:32:51;32.75;31.75;17.25
72509;PMS5003;60532;56.114;40.350;2022-10-16T00:34:51;32.00;29.50;17.00
72509;PMS5003;60532;56.114;40.350;2022-10-16T00:36:54;29.60;23.80;14.80
72509;PMS5003;60532;56.114;40.350;2022-10-16T00:38:56;27.50;23.25;13.50
72509;PMS5003;60532;56.114;40.350;2022-10-16T00:40:57;33.00;28.60;16.00
72509;PMS5003;60532;56.114;40.350;2022-10-16T00:42:58;30.25;28.75;17.25
72509;PMS5003;60532;56.114;40.350;2022-10-16T00:44:58;30.25;29.50;14.50
72509;PMS5003;60532;56.114;40.350;2022-10-16T00:46:59;30.75;27.25;16.00
72509;PMS5003;60532;56.114;40.350;2022-10-16T00:51:00;29.40;26.00;16.20
72509;PMS5003;60532;56.114;40.350;2022-10-16T00:53:01;33.20;32.60;18.00
72509;PMS5003;60532;56.114;40.350;2022-10-16T00:55:03;31.60;25.60;14.40
72509;PMS5003;60532;56.114;40.350;2022-10-16T00:57:05;34.00;30.00;16.00
72509;PMS5003;60532;56.114;40.350;2022-10-16T00:59:08;30.20;25.00;16.00
72509;PMS5003;60532;56.114;40.350;2022-10-16T01:01:11;33.40;27.80;16.40
72509;PMS5003;60532;56.114;40.350;2022-10-16T01:03:26;27.00;24.50;12.50
72509;PMS5003;60532;56.114;40.350;2022-10-16T01:05:39;39.20;28.60;17.20
72509;PMS5003;60532;56.114;40.350;2022-10-16T01:14:15;36.60;26.00;14.00
72509;PMS5003;60532;56.114;40.350;2022-10-16T01:16:20;39.40;26.40;17.00
72509;PMS5003;60532;56.114;40.350;2022-10-16T01:22:33;32.25;27.25;17.00
72509;PMS5003;60532;56.114;40.350;2022-10-16T01:24:41;38.20;30.60;18.80
72509;PMS5003;60532;56.114;40.350;2022-10-16T01:28:57;30.00;27.60;17.80
72509;PMS5003;60532;56.114;40.350;2022-10-16T01:31:00;28.40;22.80;13.80
72509;PMS5003;60532;56.114;40.350;2022-10-16T01:33:07;36.20;31.40;16.40
72509;PMS5003;60532;56.114;40.350;2022-10-16T01:37:15;34.50;24.50;17.75
72509;PMS5003;60532;56.114;40.350;2022-10-16T01:39:16;35.20;28.60;16.80
72509;PMS5003;60532;56.114;40.350;2022-10-16T01:41:43;38.80;27.00;15.20
72509;PMS5003;60532;56.114;40.350;2022-10-16T01:46:08;30.40;27.20;15.00
72509;PMS5003;60532;56.114;40.350;2022-10-16T01:48:09;31.60;26.80;16.60
72509;PMS5003;60532;56.114;40.350;2022-10-16T01:50:12;30.60;29.40;17.00
72509;PMS5003;60532;56.114;40.350;2022-10-16T01:52:15;29.00;23.60;17.60
72509;PMS5003;60532;56.114;40.350;2022-10-16T01:54:17;29.80;24.00;13.00
72509;PMS5003;60532;56.114;40.350;2022-10-16T01:56:19;28.40;26.20;17.20
72509;PMS5003;60532;56.114;40.350;2022-10-16T01:58:22;33.80;29.80;18.00
72509;PMS5003;60532;56.114;40.350;2022-10-16T02:00:24;30.60;26.20;15.00
72509;PMS5003;60532;56.114;40.350;2022-10-16T02:02:25;36.80;28.60;16.20
72509;PMS5003;60532;56.114;40.350;2022-10-16T02:04:32;28.60;26.80;16.00
72509;PMS5003;60532;56.114;40.350;2022-10-16T02:06:33;28.20;27.60;17.00
72509;PMS5003;60532;56.114;40.350;2022-10-16T02:08:34;34.20;21.00;12.00
72509;PMS5003;60532;56.114;40.350;2022-10-16T02:10:36;34.20;28.60;15.40
72509;PMS5003;60532;56.114;40.350;2022-10-16T02:12:38;35.40;28.60;17.20
72509;PMS5003;60532;56.114;40.350;2022-10-16T02:14:41;37.80;30.00;16.60
72509;PMS5003;60532;56.114;40.350;2022-10-16T02:16:45;40.20;29.80;15.00
72509;PMS5003;60532;56.114;40.350;2022-10-16T02:18:46;37.80;32.60;17.00
72509;PMS5003;60532;56.114;40.350;2022-10-16T02:20:57;29.00;23.00;12.00
72509;PMS5003;60532;56.114;40.350;2022-10-16T02:22:59;25.00;23.80;15.40
72509;PMS5003;60532;56.114;40.350;2022-10-16T02:25:03;36.00;30.60;18.00
72509;PMS5003;60532;56.114;40.350;2022-10-16T02:29:24;33.80;26.60;17.00
72509;PMS5003;60532;56.114;40.350;2022-10-16T02:31:27;33.80;27.40;16.00
72509;PMS5003;60532;56.114;40.350;2022-10-16T02:33:28;33.80;29.60;14.80
72509;PMS5003;60532;56.114;40.350;2022-10-16T02:35:30;35.80;28.40;16.60
72509;PMS5003;60532;56.114;40.350;2022-10-16T02:37:31;34.40;29.00;17.00
72509;PMS5003;60532;56.114;40.350;2022-10-16T02:39:33;38.20;30.20;15.80
72509;PMS5003;60532;56.114;40.350;2022-10-16T02:41:33;31.40;27.20;13.60
72509;PMS5003;60532;56.114;40.350;2022-10-16T02:43:34;34.25;31.50;16.50
72509;PMS5003;60532;56.114;40.350;2022-10-16T02:45:35;25.50;25.25;16.25
72509;PMS5003;60532;56.114;40.350;2022-10-16T02:47:36;35.50;26.25;15.50
72509;PMS5003;60532;56.114;40.350;2022-10-16T02:49:36;28.25;25.50;16.75
72509;PMS5003;60532;56.114;40.350;2022-10-16T02:51:37;26.25;24.25;14.50
72509;PMS5003;60532;56.114;40.350;2022-10-16T02:53:37;29.75;26.50;15.00
72509;PMS5003;60532;56.114;40.350;2022-10-16T02:55:38;28.75;26.75;15.50
72509;PMS5003;60532;56.114;40.350;2022-10-16T02:57:38;33.50;28.25;15.50
72509;PMS5003;60532;56.114;40.350;2022-10-16T02:59:40;29.00;23.40;12.40
72509;PMS5003;60532;56.114;40.350;2022-10-16T03:01:40;30.25;29.25;18.00
72509;PMS5003;60532;56.114;40.350;2022-10-16T03:03:41;31.25;25.00;17.00
72509;PMS5003;60532;56.114;40.350;2022-10-16T03:05:42;37.75;24.00;13.00
72509;PMS5003;60532;56.114;40.350;2022-10-16T03:07:43;29.40;26.20;16.00
72509;PMS5003;60532;56.114;40.350;2022-10-16T03:09:43;26.00;24.00;15.50
72509;PMS5003;60532;56.114;40.350;2022-10-16T03:11:44;30.25;28.75;17.00
72509;PMS5003;60532;56.114;40.350;2022-10-16T03:13:44;30.25;25.25;13.75
72509;PMS5003;60532;56.114;40.350;2022-10-16T03:15:45;36.25;29.50;17.50
72509;PMS5003;60532;56.114;40.350;2022-10-16T03:17:45;32.50;27.75;15.50
72509;PMS5003;60532;56.114;40.350;2022-10-16T03:19:46;36.25;28.00;15.50
72509;PMS5003;60532;56.114;40.350;2022-10-16T03:21:46;32.00;27.25;16.25
72509;PMS5003;60532;56.114;40.350;2022-10-16T03:23:47;36.50;30.25;17.00
72509;PMS5003;60532;56.114;40.350;2022-10-16T03:25:48;33.75;29.25;17.75
72509;PMS5003;60532;56.114;40.350;2022-10-16T03:27:48;35.50;29.25;15.25
72509;PMS5003;60532;56.114;40.350;2022-10-16T03:29:49;26.75;23.00;13.00
72509;PMS5003;60532;56.114;40.350;2022-10-16T03:31:49;33.25;28.50;17.00
72509;PMS5003;60532;56.114;40.350;2022-10-16T03:33:49;29.25;25.00;12.50
72509;PMS5003;60532;56.114;40.350;2022-10-16T03:35:51;32.25;30.25;17.50
72509;PMS5003;60532;56.114;40.350;2022-10-16T03:37:51;31.80;27.40;14.20
72509;PMS5003;60532;56.114;40.350;2022-10-16T03:39:53;34.40;31.40;16.80
72509;PMS5003;60532;56.114;40.350;2022-10-16T03:41:53;29.75;25.00;16.00
72509;PMS5003;60532;56.114;40.350;2022-10-16T03:43:54;34.00;28.75;16.25
72509;PMS5003;60532;56.114;40.350;2022-10-16T03:45:54;30.50;28.50;16.00
72509;PMS5003;60532;56.114;40.350;2022-10-16T03:47:55;32.25;26.50;16.50
72509;PMS5003;60532;56.114;40.350;2022-10-16T03:49:55;30.50;27.25;16.50
72509;PMS5003;60532;56.114;40.350;2022-10-16T03:51:56;31.75;26.75;17.25
72509;PMS5003;60532;56.114;40.350;2022-10-16T03:53:56;42.75;31.25;16.75
72509;PMS5003;60532;56.114;40.350;2022-10-16T03:55:56;29.25;25.50;15.00
72509;PMS5003;60532;56.114;40.350;2022-10-16T03:57:58;28.40;25.20;14.40
72509;PMS5003;60532;56.114;40.350;2022-10-16T03:59:58;32.75;26.25;14.00
72509;PMS5003;60532;56.114;40.350;2022-10-16T04:01:59;32.75;23.25;13.25
72509;PMS5003;60532;56.114;40.350;2022-10-16T04:03:59;23.00;20.25;12.25
72509;PMS5003;60532;56.114;40.350;2022-10-16T04:06:00;31.50;28.00;16.00
72509;PMS5003;60532;56.114;40.350;2022-10-16T04:08:00;28.50;26.25;15.25
72509;PMS5003;60532;56.114;40.350;2022-10-16T04:10:01;27.25;24.75;13.25
72509;PMS5003;60532;56.114;40.350;2022-10-16T04:12:01;28.00;18.25;13.50
72509;PMS5003;60532;56.114;40.350;2022-10-16T04:14:02;31.00;23.00;15.00
72509;PMS5003;60532;56.114;40.350;2022-10-16T04:16:03;28.75;25.00;13.75
72509;PMS5003;60532;56.114;40.350;2022-10-16T04:18:04;30.25;27.75;14.00
72509;PMS5003;60532;56.114;40.350;2022-10-16T04:20:04;31.60;25.20;17.40
72509;PMS5003;60532;56.114;40.350;2022-10-16T04:22:05;25.00;23.00;13.75
72509;PMS5003;60532;56.114;40.350;2022-10-16T04:24:05;31.75;25.00;17.25
72509;PMS5003;60532;56.114;40.350;2022-10-16T04:26:06;28.75;24.00;12.75
72509;PMS5003;60532;56.114;40.350;2022-10-16T04:28:07;33.75;26.00;13.00
72509;PMS5003;60532;56.114;40.350;2022-10-16T04:30:07;28.75;26.00;16.00
72509;PMS5003;60532;56.114;40.350;2022-10-16T04:32:08;26.75;23.50;12.00
72509;PMS5003;60532;56.114;40.350;2022-10-16T04:34:09;30.80;23.60;15.80
72509;PMS5003;60532;56.114;40.350;2022-10-16T04:36:09;35.50;26.50;16.00
72509;PMS5003;60532;56.114;40.350;2022-10-16T04:38:10;29.75;26.50;14.50
72509;PMS5003;60532;56.114;40.350;2022-10-16T04:40:10;23.50;23.50;13.00
72509;PMS5003;60532;56.114;40.350;2022-10-16T04:42:11;27.75;23.75;14.25
72509;PMS5003;60532;56.114;40.350;2022-10-16T04:44:11;31.50;25.50;14.25
72509;PMS5003;60532;56.114;40.350;2022-10-16T04:46:12;28.00;27.50;14.00
72509;PMS5003;60532;56.114;40.350;2022-10-16T04:48:12;26.50;22.50;13.00
72509;PMS5003;60532;56.114;40.350;2022-10-16T04:50:13;26.25;25.25;12.50
72509;PMS5003;60532;56.114;40.350;2022-10-16T04:52:13;28.75;23.25;14.00
72509;PMS5003;60532;56.114;40.350;2022-10-16T04:54:14;31.50;29.00;14.25
72509;PMS5003;60532;56.114;40.350;2022-10-16T04:56:14;26.25;23.00;11.75
72509;PMS5003;60532;56.114;40.350;2022-10-16T04:58:15;29.50;24.50;13.00
72509;PMS5003;60532;56.114;40.350;2022-10-16T05:00:16;30.75;25.75;13.75
72509;PMS5003;60532;56.114;40.350;2022-10-16T05:02:16;31.50;26.50;14.00
72509;PMS5003;60532;56.114;40.350;2022-10-16T05:04:17;26.50;23.75;13.50
72509;PMS5003;60532;56.114;40.350;2022-10-16T05:06:17;25.50;23.50;14.25
72509;PMS5003;60532;56.114;40.350;2022-10-16T05:08:18;24.75;22.50;13.00
72509;PMS5003;60532;56.114;40.350;2022-10-16T05:10:18;32.75;25.50;14.25
72509;PMS5003;60532;56.114;40.350;2022-10-16T05:12:19;26.25;20.25;13.00
72509;PMS5003;60532;56.114;40.350;2022-10-16T05:14:19;25.50;24.25;13.00
72509;PMS5003;60532;56.114;40.350;2022-10-16T05:16:20;23.25;22.00;10.00
72509;PMS5003;60532;56.114;40.350;2022-10-16T05:18:20;30.00;20.50;13.50
72509;PMS5003;60532;56.114;40.350;2022-10-16T05:20:21;26.50;21.00;13.00
72509;PMS5003;60532;56.114;40.350;2022-10-16T05:22:23;27.00;22.60;11.80
72509;PMS5003;60532;56.114;40.350;2022-10-16T05:24:23;28.75;22.50;11.25
72509;PMS5003;60532;56.114;40.350;2022-10-16T05:26:24;24.50;20.00;12.00
72509;PMS5003;60532;56.114;40.350;2022-10-16T05:28:28;19.50;19.50;12.25
72509;PMS5003;60532;56.114;40.350;2022-10-16T05:30:29;22.40;21.40;12.00
72509;PMS5003;60532;56.114;40.350;2022-10-16T05:32:29;21.00;15.25;10.00
72509;PMS5003;60532;56.114;40.350;2022-10-16T05:34:29;25.25;23.50;13.50
72509;PMS5003;60532;56.114;40.350;2022-10-16T05:36:30;22.00;19.75;10.25
72509;PMS5003;60532;56.114;40.350;2022-10-16T05:38:30;20.00;18.25;9.75
72509;PMS5003;60532;56.114;40.350;2022-10-16T05:40:31;19.00;19.00;11.00
72509;PMS5003;60532;56.114;40.350;2022-10-16T05:42:31;21.50;18.75;9.50
72509;PMS5003;60532;56.114;40.350;2022-10-16T05:44:32;19.00;16.50;11.00
72509;PMS5003;60532;56.114;40.350;2022-10-16T05:46:33;19.60;17.20;12.00
72509;PMS5003;60532;56.114;40.350;2022-10-16T05:48:33;24.50;22.00;12.00
72509;PMS5003;60532;56.114;40.350;2022-10-16T05:50:34;20.00;19.00;13.50
72509;PMS5003;60532;56.114;40.350;2022-10-16T05:52:34;19.25;17.75;10.50
72509;PMS5003;60532;56.114;40.350;2022-10-16T05:54:35;18.50;15.50;8.50
72509;PMS5003;60532;56.114;40.350;2022-10-16T05:56:35;19.50;19.50;11.25
72509;PMS5003;60532;56.114;40.350;2022-10-16T05:58:37;21.50;20.00;10.00
72509;PMS5003;60532;56.114;40.350;2022-10-16T06:00:37;19.20;15.60;9.60
72509;PMS5003;60532;56.114;40.350;2022-10-16T06:02:38;16.00;15.50;9.50
72509;PMS5003;60532;56.114;40.350;2022-10-16T06:04:38;17.75;14.50;8.00
72509;PMS5003;60532;56.114;40.350;2022-10-16T06:06:39;16.75;11.00;9.50
72509;PMS5003;60532;56.114;40.350;2022-10-16T06:08:40;15.75;14.50;10.00
72509;PMS5003;60532;56.114;40.350;2022-10-16T06:10:41;18.20;13.20;8.60
72509;PMS5003;60532;56.114;40.350;2022-10-16T06:12:41;15.25;15.25;8.00
72509;PMS5003;60532;56.114;40.350;2022-10-16T06:14:42;20.25;16.25;10.00
72509;PMS5003;60532;56.114;40.350;2022-10-16T06:16:42;16.25;16.00;7.25
72509;PMS5003;60532;56.114;40.350;2022-10-16T06:18:43;16.25;14.75;8.50
72509;PMS5003;60532;56.114;40.350;2022-10-16T06:20:44;12.75;12.75;9.00
72509;PMS5003;60532;56.114;40.350;2022-10-16T06:22:44;14.25;12.25;7.00
72509;PMS5003;60532;56.114;40.350;2022-10-16T06:24:45;15.25;12.50;8.25
72509;PMS5003;60532;56.114;40.350;2022-10-16T06:26:46;15.40;14.40;8.20
72509;PMS5003;60532;56.114;40.350;2022-10-16T06:28:47;15.75;13.50;7.25
72509;PMS5003;60532;56.114;40.350;2022-10-16T06:30:47;15.00;13.60;8.00
72509;PMS5003;60532;56.114;40.350;2022-10-16T06:32:48;12.50;11.75;7.50
72509;PMS5003;60532;56.114;40.350;2022-10-16T06:34:48;11.25;11.00;7.50
72509;PMS5003;60532;56.114;40.350;2022-10-16T06:36:49;11.00;10.75;6.75
72509;PMS5003;60532;56.114;40.350;2022-10-16T06:38:49;15.00;14.50;8.75
72509;PMS5003;60532;56.114;40.350;2022-10-16T06:40:50;18.00;16.25;8.75
72509;PMS5003;60532;56.114;40.350;2022-10-16T06:42:50;17.25;14.00;8.75
72509;PMS5003;60532;56.114;40.350;2022-10-16T06:44:52;15.00;13.80;6.80
72509;PMS5003;60532;56.114;40.350;2022-10-16T06:46:52;15.50;14.50;8.00
72509;PMS5003;60532;56.114;40.350;2022-10-16T06:48:53;8.00;8.00;3.25
72509;PMS5003;60532;56.114;40.350;2022-10-16T06:51:00;14.00;11.60;6.80
72509;PMS5003;60532;56.114;40.350;2022-10-16T06:53:01;10.20;9.20;6.80
72509;PMS5003;60532;56.114;40.350;2022-10-16T06:55:02;12.25;10.50;7.75
72509;PMS5003;60532;56.114;40.350;2022-10-16T06:57:03;7.00;3.80;3.60
72509;PMS5003;60532;56.114;40.350;2022-10-16T06:59:03;11.00;10.00;6.75
72509;PMS5003;60532;56.114;40.350;2022-10-16T07:01:04;12.00;11.75;8.00
72509;PMS5003;60532;56.114;40.350;2022-10-16T07:03:07;12.00;12.00;7.80
72509;PMS5003;60532;56.114;40.350;2022-10-16T07:05:08;14.25;12.25;7.75
72509;PMS5003;60532;56.114;40.350;2022-10-16T07:07:08;13.25;11.50;7.00
72509;PMS5003;60532;56.114;40.350;2022-10-16T07:09:09;11.75;11.00;7.00
72509;PMS5003;60532;56.114;40.350;2022-10-16T07:11:11;10.80;10.00;6.00
72509;PMS5003;60532;56.114;40.350;2022-10-16T07:13:12;12.80;12.00;6.60
72509;PMS5003;60532;56.114;40.350;2022-10-16T07:15:14;6.20;6.20;3.00
72509;PMS5003;60532;56.114;40.350;2022-10-16T07:17:14;10.25;9.25;6.00
72509;PMS5003;60532;56.114;40.350;2022-10-16T07:19:15;13.00;8.50;5.00
72509;PMS5003;60532;56.114;40.350;2022-10-16T07:21:19;12.00;9.60;5.40
72509;PMS5003;60532;56.114;40.350;2022-10-16T07:23:20;15.40;14.20;7.00
72509;PMS5003;60532;56.114;40.350;2022-10-16T07:25:21;13.25;11.50;7.00
72509;PMS5003;60532;56.114;40.350;2022-10-16T07:27:21;9.50;9.50;7.00
72509;PMS5003;60532;56.114;40.350;2022-10-16T07:29:23;13.40;10.60;6.00
72509;PMS5003;60532;56.114;40.350;2022-10-16T07:31:24;11.00;10.25;6.00
72509;PMS5003;60532;56.114;40.350;2022-10-16T07:33:25;13.00;10.00;6.00
72509;PMS5003;60532;56.114;40.350;2022-10-16T07:35:25;12.00;12.00;6.75
72509;PMS5003;60532;56.114;40.350;2022-10-16T07:37:26;13.25;11.75;5.50
72509;PMS5003;60532;56.114;40.350;2022-10-16T07:39:27;13.00;12.20;7.00
72509;PMS5003;60532;56.114;40.350;2022-10-16T07:41:28;11.50;11.50;6.00
72509;PMS5003;60532;56.114;40.350;2022-10-16T07:43:29;10.25;9.50;6.00
72509;PMS5003;60532;56.114;40.350;2022-10-16T07:45:29;14.80;9.40;6.00
72509;PMS5003;60532;56.114;40.350;2022-10-16T07:47:30;15.25;13.75;7.50
72509;PMS5003;60532;56.114;40.350;2022-10-16T07:49:30;12.25;12.25;6.75
72509;PMS5003;60532;56.114;40.350;2022-10-16T07:51:31;7.00;7.00;5.75
72509;PMS5003;60532;56.114;40.350;2022-10-16T07:53:31;2.50;0.00;0.00
72509;PMS5003;60532;56.114;40.350;2022-10-16T07:55:32;12.60;11.00;6.20
72509;PMS5003;60532;56.114;40.350;2022-10-16T07:57:33;15.25;11.00;6.00
72509;PMS5003;60532;56.114;40.350;2022-10-16T07:59:33;10.75;9.75;5.00
72509;PMS5003;60532;56.114;40.350;2022-10-16T08:01:33;11.50;7.00;3.00
72509;PMS5003;60532;56.114;40.350;2022-10-16T08:03:34;10.00;8.00;5.00
72509;PMS5003;60532;56.114;40.350;2022-10-16T08:05:35;13.50;12.00;5.75
72509;PMS5003;60532;56.114;40.350;2022-10-16T08:07:35;11.75;10.00;5.00
72509;PMS5003;60532;56.114;40.350;2022-10-16T08:09:36;11.50;9.25;5.50
72509;PMS5003;60532;56.114;40.350;2022-10-16T08:11:36;8.75;7.25;4.00
72509;PMS5003;60532;56.114;40.350;2022-10-16T08:13:37;11.00;8.75;4.00
72509;PMS5003;60532;56.114;40.350;2022-10-16T08:15:37;12.00;11.00;6.00
72509;PMS5003;60532;56.114;40.350;2022-10-16T08:17:38;11.00;8.00;4.75
72509;PMS5003;60532;56.114;40.350;2022-10-16T08:19:38;7.75;6.75;4.50
72509;PMS5003;60532;56.114;40.350;2022-10-16T08:21:39;8.75;7.00;5.00
72509;PMS5003;60532;56.114;40.350;2022-10-16T08:23:39;9.00;6.75;4.00
72509;PMS5003;60532;56.114;40.350;2022-10-16T08:25:40;10.00;10.00;5.00
72509;PMS5003;60532;56.114;40.350;2022-10-16T08:27:41;12.00;10.40;4.60
72509;PMS5003;60532;56.114;40.350;2022-10-16T08:29:41;10.25;7.00;4.00
72509;PMS5003;60532;56.114;40.350;2022-10-16T08:31:42;6.25;6.00;4.00
72509;PMS5003;60532;56.114;40.350;2022-10-16T08:33:43;12.00;8.25;4.25
72509;PMS5003;60532;56.114;40.350;2022-10-16T08:35:53;10.20;8.00;4.80
72509;PMS5003;60532;56.114;40.350;2022-10-16T08:37:54;11.80;10.40;5.40
72509;PMS5003;60532;56.114;40.350;2022-10-16T08:39:55;6.80;6.80;4.00
72509;PMS5003;60532;56.114;40.350;2022-10-16T08:42:16;7.00;5.50;3.00
72509;PMS5003;60532;56.114;40.350;2022-10-16T08:46:49;7.40;7.40;4.00
72509;PMS5003;60532;56.114;40.350;2022-10-16T08:48:54;6.60;6.60;3.60
72509;PMS5003;60532;56.114;40.350;2022-10-16T08:50:55;9.40;8.20;4.00
72509;PMS5003;60532;56.114;40.350;2022-10-16T08:52:56;8.75;7.00;4.00
72509;PMS5003;60532;56.114;40.350;2022-10-16T08:54:57;7.40;7.00;4.00
72509;PMS5003;60532;56.114;40.350;2022-10-16T08:57:01;8.00;7.00;5.00
72509;PMS5003;60532;56.114;40.350;2022-10-16T08:59:09;10.00;10.00;5.00
72509;PMS5003;60532;56.114;40.350;2022-10-16T09:01:11;11.00;7.20;5.00
72509;PMS5003;60532;56.114;40.350;2022-10-16T09:03:24;8.40;6.60;4.00
72509;PMS5003;60532;56.114;40.350;2022-10-16T09:09:53;8.80;6.80;4.00
72509;PMS5003;60532;56.114;40.350;2022-10-16T09:17:00;10.20;7.00;4.00
72509;PMS5003;60532;56.114;40.350;2022-10-16T09:19:25;10.20;7.00;4.00
72509;PMS5003;60532;56.114;40.350;2022-10-16T09:21:25;8.60;8.60;3.00
72509;PMS5003;60532;56.114;40.350;2022-10-16T09:23:28;6.80;6.80;4.40
72509;PMS5003;60532;56.114;40.350;2022-10-16T09:25:29;6.20;6.00;3.40
72509;PMS5003;60532;56.114;40.350;2022-10-16T09:27:30;7.60;6.20;4.00
72509;PMS5003;60532;56.114;40.350;2022-10-16T09:29:31;8.75;6.75;3.00
72509;PMS5003;60532;56.114;40.350;2022-10-16T09:31:31;9.25;6.25;4.00
72509;PMS5003;60532;56.114;40.350;2022-10-16T09:33:35;6.25;6.25;3.25
72509;PMS5003;60532;56.114;40.350;2022-10-16T09:35:41;7.60;7.20;3.20
72509;PMS5003;60532;56.114;40.350;2022-10-16T09:37:43;7.00;6.40;3.00
72509;PMS5003;60532;56.114;40.350;2022-10-16T09:39:52;10.20;8.20;3.40
72509;PMS5003;60532;56.114;40.350;2022-10-16T09:41:52;9.40;9.00;3.00
72509;PMS5003;60532;56.114;40.350;2022-10-16T09:43:55;10.00;6.00;3.60
72509;PMS5003;60532;56.114;40.350;2022-10-16T09:46:00;11.80;5.60;3.00
72509;PMS5003;60532;56.114;40.350;2022-10-16T09:48:01;10.20;6.60;4.00
72509;PMS5003;60532;56.114;40.350;2022-10-16T09:50:28;8.80;7.00;2.80
72509;PMS5003;60532;56.114;40.350;2022-10-16T09:52:33;5.40;5.40;3.00
72509;PMS5003;60532;56.114;40.350;2022-10-16T09:54:33;8.25;5.75;3.00
72509;PMS5003;60532;56.114;40.350;2022-10-16T09:56:34;5.25;5.25;2.00
72509;PMS5003;60532;56.114;40.350;2022-10-16T09:58:36;9.00;6.40;4.00
72509;PMS5003;60532;56.114;40.350;2022-10-16T10:00:37;11.60;8.80;4.00
72509;PMS5003;60532;56.114;40.350;2022-10-16T10:02:41;4.80;4.80;2.00
72509;PMS5003;60532;56.114;40.350;2022-10-16T10:04:45;7.00;7.00;3.25
72509;PMS5003;60532;56.114;40.350;2022-10-16T10:06:52;9.00;5.00;3.60
72509;PMS5003;60532;56.114;40.350;2022-10-16T10:08:57;7.00;4.60;1.40
72509;PMS5003;60532;56.114;40.350;2022-10-16T10:10:58;11.80;5.40;3.00
72509;PMS5003;60532;56.114;40.350;2022-10-16T10:12:58;5.25;5.00;3.50
72509;PMS5003;60532;56.114;40.350;2022-10-16T10:15:04;5.60;5.60;2.00
72509;PMS5003;60532;56.114;40.350;2022-10-16T10:19:12;6.00;6.00;3.00
72509;PMS5003;60532;56.114;40.350;2022-10-16T10:21:13;5.40;4.60;2.40
72509;PMS5003;60532;56.114;40.350;2022-10-16T10:23:26;4.80;4.80;2.60
72509;PMS5003;60532;56.114;40.350;2022-10-16T10:27:54;6.60;6.60;3.80
72509;PMS5003;60532;56.114;40.350;2022-10-16T10:29:55;5.80;4.40;4.00
72509;PMS5003;60532;56.114;40.350;2022-10-16T10:36:30;3.60;2.60;1.00
72509;PMS5003;60532;56.114;40.350;2022-10-16T10:38:42;8.60;6.00;4.00
72509;PMS5003;60532;56.114;40.350;2022-10-16T10:43:04;6.80;6.80;3.80
72509;PMS5003;60532;56.114;40.350;2022-10-16T10:49:27;6.80;4.60;3.00
72509;PMS5003;60532;56.114;40.350;2022-10-16T10:55:44;5.25;4.75;3.00
72509;PMS5003;60532;56.114;40.350;2022-10-16T11:06:48;5.00;5.00;3.40
72509;PMS5003;60532;56.114;40.350;2022-10-16T11:08:51;11.40;8.60;2.20
72509;PMS5003;60532;56.114;40.350;2022-10-16T11:13:04;6.00;6.00;4.00
72509;PMS5003;60532;56.114;40.350;2022-10-16T11:15:19;5.40;5.40;3.00
72509;PMS5003;60532;56.114;40.350;2022-10-16T11:17:28;5.60;5.40;3.80
72509;PMS5003;60532;56.114;40.350;2022-10-16T11:19:41;6.20;6.00;3.00
72509;PMS5003;60532;56.114;40.350;2022-10-16T11:21:48;4.80;4.60;3.00
72509;PMS5003;60532;56.114;40.350;2022-10-16T11:23:55;5.00;4.80;3.00
72509;PMS5003;60532;56.114;40.350;2022-10-16T11:25:59;10.20;6.60;4.00
72509;PMS5003;60532;56.114;40.350;2022-10-16T11:28:02;5.20;5.20;3.00
72509;PMS5003;60532;56.114;40.350;2022-10-16T11:30:16;5.00;3.60;2.80
72509;PMS5003;60532;56.114;40.350;2022-10-16T11:32:21;6.00;6.00;3.00
72509;PMS5003;60532;56.114;40.350;2022-10-16T11:34:34;6.80;6.40;4.00
72509;PMS5003;60532;56.114;40.350;2022-10-16T11:43:28;10.00;8.60;3.00
72509;PMS5003;60532;56.114;40.350;2022-10-16T11:47:34;10.75;7.50;3.25
72509;PMS5003;60532;56.114;40.350;2022-10-16T11:49:36;6.20;5.60;3.60
72509;PMS5003;60532;56.114;40.350;2022-10-16T11:51:42;7.40;6.40;4.00
72509;PMS5003;60532;56.114;40.350;2022-10-16T11:55:44;6.25;6.00;3.00
72509;PMS5003;60532;56.114;40.350;2022-10-16T11:57:47;7.00;7.00;3.60
72509;PMS5003;60532;56.114;40.350;2022-10-16T11:59:51;7.20;5.20;3.00
72509;PMS5003;60532;56.114;40.350;2022-10-16T12:08:38;7.60;7.60;4.00
72509;PMS5003;60532;56.114;40.350;2022-10-16T12:10:40;11.25;9.25;5.00
72509;PMS5003;60532;56.114;40.350;2022-10-16T12:12:40;8.20;6.00;3.20
72509;PMS5003;60532;56.114;40.350;2022-10-16T12:14:41;8.00;5.00;3.25
72509;PMS5003;60532;56.114;40.350;2022-10-16T12:16:58;5.25;4.50;3.00
72509;PMS5003;60532;56.114;40.350;2022-10-16T12:19:10;6.60;5.80;3.20
72509;PMS5003;60532;56.114;40.350;2022-10-16T12:21:12;9.00;6.00;3.20
72509;PMS5003;60532;56.114;40.350;2022-10-16T12:23:19;5.20;3.00;1.00
72509;PMS5003;60532;56.114;40.350;2022-10-16T12:25:23;5.60;5.60;3.00
72509;PMS5003;60532;56.114;40.350;2022-10-16T12:31:25;4.75;4.00;2.00
72509;PMS5003;60532;56.114;40.350;2022-10-16T12:33:40;6.20;6.00;3.60
72509;PMS5003;60532;56.114;40.350;2022-10-16T12:35:44;7.80;6.40;3.00
72509;PMS5003;60532;56.114;40.350;2022-10-16T12:37:45;5.80;5.60;3.20
72509;PMS5003;60532;56.114;40.350;2022-10-16T12:39:46;6.75;6.50;3.25
72509;PMS5003;60532;56.114;40.350;2022-10-16T12:41:47;9.60;7.00;4.00
72509;PMS5003;60532;56.114;40.350;2022-10-16T12:43:48;7.00;7.00;4.00
72509;PMS5003;60532;56.114;40.350;2022-10-16T12:45:58;11.80;8.40;3.80
72509;PMS5003;60532;56.114;40.350;2022-10-16T12:48:04;7.80;5.40;3.80
72509;PMS5003;60532;56.114;40.350;2022-10-16T12:50:22;5.00;5.00;2.40
72509;PMS5003;60532;56.114;40.350;2022-10-16T12:52:41;10.80;9.00;4.00